sensor_id;sensor_type;location;lat;lon;timestamp;P1;durP1;ratioP1;P2;durP2;ratioP2
49738;SDS011;53662;50.114;8.626;2023-07-09T00:01:25;7.38;;;4.75;;
49738;SDS011;53662;50.114;8.626;2023-07-09T00:03:51;5.20;;;4.72;;
49738;SDS011;53662;50.114;8.626;2023-07-09T00:06:18;17.05;;;5.03;;
49738;SDS011;53662;50.114;8.626;2023-07-09T00:08:45;7.00;;;4.60;;
49738;SDS011;53662;50.114;8.626;2023-07-09T00:11:13;7.47;;;4.20;;
49738;SDS011;53662;50.114;8.626;2023-07-09T00:13:39;7.88;;;4.30;;
49738;SDS011;53662;50.114;8.626;2023-07-09T00:16:09;8.38;;;4.72;;
49738;SDS011;53662;50.114;8.626;2023-07-09T00:18:36;8.25;;;4.88;;
49738;SDS011;53662;50.114;8.626;2023-07-09T00:21:02;7.82;;;4.97;;
49738;SDS011;53662;50.114;8.626;2023-07-09T00:23:28;4.97;;;4.35;;
49738;SDS011;53662;50.114;8.626;2023-07-09T00:25:54;7.28;;;4.38;;
49738;SDS011;53662;50.114;8.626;2023-07-09T00:28:20;5.20;;;4.60;;
49738;SDS011;53662;50.114;8.626;2023-07-09T00:30:47;7.30;;;4.38;;
49738;SDS011;53662;50.114;8.626;2023-07-09T00:33:14;8.65;;;4.65;;
49738;SDS011;53662;50.114;8.626;2023-07-09T00:35:43;5.25;;;4.65;;
49738;SDS011;53662;50.114;8.626;2023-07-09T00:38:22;7.97;;;5.05;;
49738;SDS011;53662;50.114;8.626;2023-07-09T00:41:01;6.72;;;4.60;;
49738;SDS011;53662;50.114;8.626;2023-07-09T00:43:31;6.45;;;4.88;;
49738;SDS011;53662;50.114;8.626;2023-07-09T00:48:38;10.52;;;5.10;;
49738;SDS011;53662;50.114;8.626;2023-07-09T00:51:07;5.50;;;5.00;;
49738;SDS011;53662;50.114;8.626;2023-07-09T00:53:36;6.13;;;4.47;;
49738;SDS011;53662;50.114;8.626;2023-07-09T00:56:03;10.73;;;5.50;;
49738;SDS011;53662;50.114;8.626;2023-07-09T00:58:30;5.47;;;4.70;;
49738;SDS011;53662;50.114;8.626;2023-07-09T01:01:00;8.88;;;5.18;;
49738;SDS011;53662;50.114;8.626;2023-07-09T01:05:54;9.82;;;4.53;;
49738;SDS011;53662;50.114;8.626;2023-07-09T01:08:20;5.43;;;4.72;;
49738;SDS011;53662;50.114;8.626;2023-07-09T01:10:46;5.82;;;4.55;;
49738;SDS011;53662;50.114;8.626;2023-07-09T01:13:12;6.75;;;4.90;;
49738;SDS011;53662;50.114;8.626;2023-07-09T01:15:39;7.43;;;4.82;;
49738;SDS011;53662;50.114;8.626;2023-07-09T01:18:05;7.55;;;4.30;;
49738;SDS011;53662;50.114;8.626;2023-07-09T01:20:31;5.45;;;4.72;;
49738;SDS011;53662;50.114;8.626;2023-07-09T01:22:58;6.63;;;4.88;;
49738;SDS011;53662;50.114;8.626;2023-07-09T01:25:26;6.90;;;4.75;;
49738;SDS011;53662;50.114;8.626;2023-07-09T01:27:53;7.20;;;4.60;;
49738;SDS011;53662;50.114;8.626;2023-07-09T01:32:47;6.03;;;4.57;;
49738;SDS011;53662;50.114;8.626;2023-07-09T01:35:15;7.60;;;4.68;;
49738;SDS011;53662;50.114;8.626;2023-07-09T01:37:42;6.97;;;5.20;;
49738;SDS011;53662;50.114;8.626;2023-07-09T01:40:09;7.95;;;4.57;;
49738;SDS011;53662;50.114;8.626;2023-07-09T01:42:35;9.25;;;4.90;;
49738;SDS011;53662;50.114;8.626;2023-07-09T01:45:03;6.32;;;4.63;;
49738;SDS011;53662;50.114;8.626;2023-07-09T01:47:29;12.60;;;4.93;;
49738;SDS011;53662;50.114;8.626;2023-07-09T01:49:54;7.47;;;4.88;;
49738;SDS011;53662;50.114;8.626;2023-07-09T01:52:22;6.55;;;4.78;;
49738;SDS011;53662;50.114;8.626;2023-07-09T01:54:49;6.50;;;4.20;;
49738;SDS011;53662;50.114;8.626;2023-07-09T01:57:22;10.57;;;4.93;;
49738;SDS011;53662;50.114;8.626;2023-07-09T01:59:49;9.82;;;4.95;;
49738;SDS011;53662;50.114;8.626;2023-07-09T02:02:15;8.45;;;4.75;;
49738;SDS011;53662;50.114;8.626;2023-07-09T02:04:47;6.40;;;4.63;;
49738;SDS011;53662;50.114;8.626;2023-07-09T02:07:13;6.75;;;4.50;;
49738;SDS011;53662;50.114;8.626;2023-07-09T02:09:40;9.90;;;4.70;;
49738;SDS011;53662;50.114;8.626;2023-07-09T02:12:06;5.55;;;4.30;;
49738;SDS011;53662;50.114;8.626;2023-07-09T02:14:32;6.00;;;4.13;;
49738;SDS011;53662;50.114;8.626;2023-07-09T02:16:58;5.22;;;4.30;;
49738;SDS011;53662;50.114;8.626;2023-07-09T02:19:24;8.63;;;5.07;;
49738;SDS011;53662;50.114;8.626;2023-07-09T02:21:50;6.00;;;5.20;;
49738;SDS011;53662;50.114;8.626;2023-07-09T02:24:16;8.43;;;5.13;;
49738;SDS011;53662;50.114;8.626;2023-07-09T02:26:42;7.53;;;4.88;;
49738;SDS011;53662;50.114;8.626;2023-07-09T02:29:08;5.60;;;4.63;;
49738;SDS011;53662;50.114;8.626;2023-07-09T02:31:34;7.47;;;4.90;;
49738;SDS011;53662;50.114;8.626;2023-07-09T02:34:00;5.95;;;5.20;;
49738;SDS011;53662;50.114;8.626;2023-07-09T02:36:25;7.68;;;5.22;;
49738;SDS011;53662;50.114;8.626;2023-07-09T02:38:51;8.45;;;5.38;;
49738;SDS011;53662;50.114;8.626;2023-07-09T02:41:17;9.80;;;4.88;;
49738;SDS011;53662;50.114;8.626;2023-07-09T02:43:43;11.15;;;4.70;;
49738;SDS011;53662;50.114;8.626;2023-07-09T02:46:09;6.40;;;5.68;;
49738;SDS011;53662;50.114;8.626;2023-07-09T02:48:35;8.43;;;5.13;;
49738;SDS011;53662;50.114;8.626;2023-07-09T02:51:01;10.32;;;4.72;;
49738;SDS011;53662;50.114;8.626;2023-07-09T02:53:27;5.78;;;5.10;;
49738;SDS011;53662;50.114;8.626;2023-07-09T02:55:53;6.95;;;5.15;;
49738;SDS011;53662;50.114;8.626;2023-07-09T02:58:19;8.77;;;5.07;;
49738;SDS011;53662;50.114;8.626;2023-07-09T03:00:48;6.65;;;4.55;;
49738;SDS011;53662;50.114;8.626;2023-07-09T03:03:17;11.27;;;5.05;;
49738;SDS011;53662;50.114;8.626;2023-07-09T03:05:44;11.10;;;5.18;;
49738;SDS011;53662;50.114;8.626;2023-07-09T03:08:10;9.85;;;5.25;;
49738;SDS011;53662;50.114;8.626;2023-07-09T03:10:36;6.93;;;5.30;;
49738;SDS011;53662;50.114;8.626;2023-07-09T03:13:02;5.75;;;5.13;;
49738;SDS011;53662;50.114;8.626;2023-07-09T03:15:27;8.70;;;5.30;;
49738;SDS011;53662;50.114;8.626;2023-07-09T03:17:53;7.10;;;4.90;;
49738;SDS011;53662;50.114;8.626;2023-07-09T03:20:19;8.32;;;5.53;;
49738;SDS011;53662;50.114;8.626;2023-07-09T03:22:45;5.07;;;4.50;;
49738;SDS011;53662;50.114;8.626;2023-07-09T03:25:11;8.18;;;4.90;;
49738;SDS011;53662;50.114;8.626;2023-07-09T03:27:37;5.72;;;5.13;;
49738;SDS011;53662;50.114;8.626;2023-07-09T03:30:03;8.73;;;5.28;;
49738;SDS011;53662;50.114;8.626;2023-07-09T03:32:29;5.50;;;5.05;;
49738;SDS011;53662;50.114;8.626;2023-07-09T03:34:55;8.15;;;5.07;;
49738;SDS011;53662;50.114;8.626;2023-07-09T03:37:21;7.20;;;4.88;;
49738;SDS011;53662;50.114;8.626;2023-07-09T03:39:47;6.63;;;5.43;;
49738;SDS011;53662;50.114;8.626;2023-07-09T03:42:13;13.27;;;5.57;;
49738;SDS011;53662;50.114;8.626;2023-07-09T03:44:39;5.20;;;4.47;;
49738;SDS011;53662;50.114;8.626;2023-07-09T03:47:06;6.13;;;4.68;;
49738;SDS011;53662;50.114;8.626;2023-07-09T03:49:32;9.00;;;5.22;;
49738;SDS011;53662;50.114;8.626;2023-07-09T03:51:58;8.98;;;5.07;;
49738;SDS011;53662;50.114;8.626;2023-07-09T03:54:24;6.82;;;4.90;;
49738;SDS011;53662;50.114;8.626;2023-07-09T03:56:50;4.85;;;4.45;;
49738;SDS011;53662;50.114;8.626;2023-07-09T03:59:16;7.20;;;4.50;;
49738;SDS011;53662;50.114;8.626;2023-07-09T04:01:42;9.02;;;4.95;;
49738;SDS011;53662;50.114;8.626;2023-07-09T04:04:11;12.43;;;5.43;;
49738;SDS011;53662;50.114;8.626;2023-07-09T04:06:37;7.80;;;5.07;;
49738;SDS011;53662;50.114;8.626;2023-07-09T04:09:03;9.02;;;5.25;;
49738;SDS011;53662;50.114;8.626;2023-07-09T04:11:29;6.90;;;5.32;;
49738;SDS011;53662;50.114;8.626;2023-07-09T04:13:55;7.03;;;4.55;;
49738;SDS011;53662;50.114;8.626;2023-07-09T04:16:21;7.45;;;5.28;;
49738;SDS011;53662;50.114;8.626;2023-07-09T04:18:48;7.18;;;5.68;;
49738;SDS011;53662;50.114;8.626;2023-07-09T04:21:14;6.90;;;5.10;;
49738;SDS011;53662;50.114;8.626;2023-07-09T04:23:40;6.88;;;4.82;;
49738;SDS011;53662;50.114;8.626;2023-07-09T04:26:05;8.75;;;4.55;;
49738;SDS011;53662;50.114;8.626;2023-07-09T04:28:34;8.20;;;4.90;;
49738;SDS011;53662;50.114;8.626;2023-07-09T04:31:00;7.40;;;5.07;;
49738;SDS011;53662;50.114;8.626;2023-07-09T04:33:26;6.53;;;5.20;;
49738;SDS011;53662;50.114;8.626;2023-07-09T04:35:52;5.38;;;4.80;;
49738;SDS011;53662;50.114;8.626;2023-07-09T04:38:18;6.47;;;4.30;;
49738;SDS011;53662;50.114;8.626;2023-07-09T04:40:44;8.00;;;4.68;;
49738;SDS011;53662;50.114;8.626;2023-07-09T04:43:12;10.00;;;5.32;;
49738;SDS011;53662;50.114;8.626;2023-07-09T04:45:38;7.43;;;5.18;;
49738;SDS011;53662;50.114;8.626;2023-07-09T04:48:04;7.35;;;5.35;;
49738;SDS011;53662;50.114;8.626;2023-07-09T04:50:30;11.02;;;4.35;;
49738;SDS011;53662;50.114;8.626;2023-07-09T04:52:56;5.03;;;4.47;;
49738;SDS011;53662;50.114;8.626;2023-07-09T04:55:22;5.22;;;4.65;;
49738;SDS011;53662;50.114;8.626;2023-07-09T04:57:48;7.80;;;4.88;;
49738;SDS011;53662;50.114;8.626;2023-07-09T05:00:14;4.70;;;4.35;;
49738;SDS011;53662;50.114;8.626;2023-07-09T05:02:40;9.20;;;5.03;;
49738;SDS011;53662;50.114;8.626;2023-07-09T05:05:06;5.85;;;4.47;;
49738;SDS011;53662;50.114;8.626;2023-07-09T05:07:32;7.05;;;4.18;;
49738;SDS011;53662;50.114;8.626;2023-07-09T05:09:58;11.50;;;4.82;;
49738;SDS011;53662;50.114;8.626;2023-07-09T05:12:26;4.60;;;4.20;;
49738;SDS011;53662;50.114;8.626;2023-07-09T05:14:52;5.38;;;4.25;;
49738;SDS011;53662;50.114;8.626;2023-07-09T05:17:19;10.07;;;4.82;;
49738;SDS011;53662;50.114;8.626;2023-07-09T05:19:45;7.50;;;4.78;;
49738;SDS011;53662;50.114;8.626;2023-07-09T05:22:11;4.68;;;4.13;;
49738;SDS011;53662;50.114;8.626;2023-07-09T05:24:37;5.65;;;4.35;;
49738;SDS011;53662;50.114;8.626;2023-07-09T05:27:03;5.00;;;4.10;;
49738;SDS011;53662;50.114;8.626;2023-07-09T05:29:29;7.65;;;4.05;;
49738;SDS011;53662;50.114;8.626;2023-07-09T05:31:55;7.05;;;4.57;;
49738;SDS011;53662;50.114;8.626;2023-07-09T05:34:21;5.20;;;4.68;;
49738;SDS011;53662;50.114;8.626;2023-07-09T05:36:47;7.30;;;4.85;;
49738;SDS011;53662;50.114;8.626;2023-07-09T05:39:13;6.65;;;5.40;;
49738;SDS011;53662;50.114;8.626;2023-07-09T05:41:39;8.82;;;4.68;;
49738;SDS011;53662;50.114;8.626;2023-07-09T05:44:05;12.75;;;5.28;;
49738;SDS011;53662;50.114;8.626;2023-07-09T05:46:33;9.45;;;4.97;;
49738;SDS011;53662;50.114;8.626;2023-07-09T05:49:01;7.13;;;4.78;;
49738;SDS011;53662;50.114;8.626;2023-07-09T05:51:27;5.57;;;4.82;;
49738;SDS011;53662;50.114;8.626;2023-07-09T05:53:52;6.00;;;4.57;;
49738;SDS011;53662;50.114;8.626;2023-07-09T05:56:18;8.57;;;4.90;;
49738;SDS011;53662;50.114;8.626;2023-07-09T05:58:44;5.88;;;4.60;;
49738;SDS011;53662;50.114;8.626;2023-07-09T06:01:10;5.90;;;5.30;;
49738;SDS011;53662;50.114;8.626;2023-07-09T06:03:37;7.25;;;6.15;;
49738;SDS011;53662;50.114;8.626;2023-07-09T06:06:03;8.77;;;5.22;;
49738;SDS011;53662;50.114;8.626;2023-07-09T06:08:30;9.15;;;5.65;;
49738;SDS011;53662;50.114;8.626;2023-07-09T06:10:57;10.77;;;5.57;;
49738;SDS011;53662;50.114;8.626;2023-07-09T06:13:23;7.68;;;5.68;;
49738;SDS011;53662;50.114;8.626;2023-07-09T06:15:50;9.43;;;6.13;;
49738;SDS011;53662;50.114;8.626;2023-07-09T06:18:16;9.50;;;5.55;;
49738;SDS011;53662;50.114;8.626;2023-07-09T06:20:45;6.90;;;6.00;;
49738;SDS011;53662;50.114;8.626;2023-07-09T06:23:11;7.70;;;5.68;;
49738;SDS011;53662;50.114;8.626;2023-07-09T06:25:38;9.70;;;6.43;;
49738;SDS011;53662;50.114;8.626;2023-07-09T06:28:03;8.80;;;5.20;;
49738;SDS011;53662;50.114;8.626;2023-07-09T06:30:29;11.15;;;5.47;;
49738;SDS011;53662;50.114;8.626;2023-07-09T06:32:55;7.88;;;6.60;;
49738;SDS011;53662;50.114;8.626;2023-07-09T06:35:21;7.75;;;6.18;;
49738;SDS011;53662;50.114;8.626;2023-07-09T06:37:47;13.10;;;5.85;;
49738;SDS011;53662;50.114;8.626;2023-07-09T06:40:13;8.95;;;6.15;;
49738;SDS011;53662;50.114;8.626;2023-07-09T06:42:39;10.70;;;6.68;;
49738;SDS011;53662;50.114;8.626;2023-07-09T06:45:06;11.80;;;6.63;;
49738;SDS011;53662;50.114;8.626;2023-07-09T06:47:32;10.85;;;6.38;;
49738;SDS011;53662;50.114;8.626;2023-07-09T06:49:58;7.90;;;6.25;;
49738;SDS011;53662;50.114;8.626;2023-07-09T06:52:24;12.98;;;6.25;;
49738;SDS011;53662;50.114;8.626;2023-07-09T06:54:50;8.68;;;6.22;;
49738;SDS011;53662;50.114;8.626;2023-07-09T06:57:16;14.65;;;6.93;;
49738;SDS011;53662;50.114;8.626;2023-07-09T06:59:42;10.85;;;6.43;;
49738;SDS011;53662;50.114;8.626;2023-07-09T07:02:08;9.10;;;6.03;;
49738;SDS011;53662;50.114;8.626;2023-07-09T07:04:34;14.88;;;7.53;;
49738;SDS011;53662;50.114;8.626;2023-07-09T07:07:00;15.38;;;5.95;;
49738;SDS011;53662;50.114;8.626;2023-07-09T07:09:25;9.48;;;6.10;;
49738;SDS011;53662;50.114;8.626;2023-07-09T07:11:51;11.30;;;6.72;;
49738;SDS011;53662;50.114;8.626;2023-07-09T07:14:17;12.43;;;7.03;;
49738;SDS011;53662;50.114;8.626;2023-07-09T07:16:43;17.52;;;7.60;;
49738;SDS011;53662;50.114;8.626;2023-07-09T07:19:09;10.55;;;6.22;;
49738;SDS011;53662;50.114;8.626;2023-07-09T07:21:35;13.23;;;6.88;;
49738;SDS011;53662;50.114;8.626;2023-07-09T07:24:01;11.57;;;6.43;;
49738;SDS011;53662;50.114;8.626;2023-07-09T07:26:28;15.77;;;6.43;;
49738;SDS011;53662;50.114;8.626;2023-07-09T07:28:54;12.95;;;6.28;;
49738;SDS011;53662;50.114;8.626;2023-07-09T07:31:20;16.50;;;7.03;;
49738;SDS011;53662;50.114;8.626;2023-07-09T07:33:46;11.90;;;7.18;;
49738;SDS011;53662;50.114;8.626;2023-07-09T07:36:12;11.90;;;5.85;;
49738;SDS011;53662;50.114;8.626;2023-07-09T07:38:38;10.05;;;6.38;;
49738;SDS011;53662;50.114;8.626;2023-07-09T07:41:04;11.93;;;6.55;;
49738;SDS011;53662;50.114;8.626;2023-07-09T07:43:30;9.60;;;5.60;;
49738;SDS011;53662;50.114;8.626;2023-07-09T07:45:56;13.65;;;5.88;;
49738;SDS011;53662;50.114;8.626;2023-07-09T07:48:22;5.90;;;5.40;;
49738;SDS011;53662;50.114;8.626;2023-07-09T07:50:48;8.50;;;5.97;;
49738;SDS011;53662;50.114;8.626;2023-07-09T07:53:14;8.65;;;5.65;;
49738;SDS011;53662;50.114;8.626;2023-07-09T07:55:41;6.35;;;4.82;;
49738;SDS011;53662;50.114;8.626;2023-07-09T07:58:11;8.32;;;5.20;;
49738;SDS011;53662;50.114;8.626;2023-07-09T08:00:38;7.10;;;5.25;;
49738;SDS011;53662;50.114;8.626;2023-07-09T08:03:04;6.18;;;5.57;;
49738;SDS011;53662;50.114;8.626;2023-07-09T08:05:30;8.65;;;5.35;;
49738;SDS011;53662;50.114;8.626;2023-07-09T08:07:56;9.40;;;6.78;;
49738;SDS011;53662;50.114;8.626;2023-07-09T08:10:22;8.10;;;5.35;;
49738;SDS011;53662;50.114;8.626;2023-07-09T08:12:48;8.27;;;5.43;;
49738;SDS011;53662;50.114;8.626;2023-07-09T08:15:14;7.22;;;5.38;;
49738;SDS011;53662;50.114;8.626;2023-07-09T08:17:40;7.05;;;5.15;;
49738;SDS011;53662;50.114;8.626;2023-07-09T08:20:06;9.60;;;5.78;;
49738;SDS011;53662;50.114;8.626;2023-07-09T08:22:32;8.60;;;5.60;;
49738;SDS011;53662;50.114;8.626;2023-07-09T08:24:58;7.32;;;5.20;;
49738;SDS011;53662;50.114;8.626;2023-07-09T08:27:24;13.20;;;5.72;;
49738;SDS011;53662;50.114;8.626;2023-07-09T08:29:49;10.75;;;5.43;;
49738;SDS011;53662;50.114;8.626;2023-07-09T08:32:15;5.95;;;5.38;;
49738;SDS011;53662;50.114;8.626;2023-07-09T08:34:42;10.80;;;4.80;;
49738;SDS011;53662;50.114;8.626;2023-07-09T08:37:08;10.35;;;5.95;;
49738;SDS011;53662;50.114;8.626;2023-07-09T08:39:34;10.57;;;5.13;;
49738;SDS011;53662;50.114;8.626;2023-07-09T08:42:04;8.73;;;5.57;;
49738;SDS011;53662;50.114;8.626;2023-07-09T08:52:15;5.97;;;5.38;;
49738;SDS011;53662;50.114;8.626;2023-07-09T08:54:42;5.65;;;5.22;;
49738;SDS011;53662;50.114;8.626;2023-07-09T08:57:17;10.50;;;5.55;;
49738;SDS011;53662;50.114;8.626;2023-07-09T08:59:44;11.45;;;5.60;;
49738;SDS011;53662;50.114;8.626;2023-07-09T09:02:30;7.40;;;4.90;;
49738;SDS011;53662;50.114;8.626;2023-07-09T09:04:57;8.43;;;5.03;;
49738;SDS011;53662;50.114;8.626;2023-07-09T09:07:28;8.60;;;4.63;;
49738;SDS011;53662;50.114;8.626;2023-07-09T09:09:56;5.00;;;4.05;;
49738;SDS011;53662;50.114;8.626;2023-07-09T09:12:25;6.85;;;4.97;;
49738;SDS011;53662;50.114;8.626;2023-07-09T09:14:56;9.57;;;5.07;;
49738;SDS011;53662;50.114;8.626;2023-07-09T09:17:23;6.35;;;4.93;;
49738;SDS011;53662;50.114;8.626;2023-07-09T09:19:55;5.43;;;4.32;;
49738;SDS011;53662;50.114;8.626;2023-07-09T09:22:22;7.27;;;4.40;;
49738;SDS011;53662;50.114;8.626;2023-07-09T09:27:21;7.07;;;4.55;;
49738;SDS011;53662;50.114;8.626;2023-07-09T09:29:47;5.95;;;4.18;;
49738;SDS011;53662;50.114;8.626;2023-07-09T09:32:18;8.57;;;5.07;;
49738;SDS011;53662;50.114;8.626;2023-07-09T09:34:46;8.70;;;4.20;;
49738;SDS011;53662;50.114;8.626;2023-07-09T09:37:12;5.68;;;4.72;;
49738;SDS011;53662;50.114;8.626;2023-07-09T09:39:38;8.98;;;4.82;;
49738;SDS011;53662;50.114;8.626;2023-07-09T09:42:08;6.38;;;4.65;;
49738;SDS011;53662;50.114;8.626;2023-07-09T09:44:35;10.30;;;4.40;;
49738;SDS011;53662;50.114;8.626;2023-07-09T09:47:01;6.03;;;4.97;;
49738;SDS011;53662;50.114;8.626;2023-07-09T09:49:27;8.13;;;4.85;;
49738;SDS011;53662;50.114;8.626;2023-07-09T09:51:53;5.53;;;4.57;;
49738;SDS011;53662;50.114;8.626;2023-07-09T09:54:23;5.53;;;4.45;;
49738;SDS011;53662;50.114;8.626;2023-07-09T09:56:50;7.20;;;5.10;;
49738;SDS011;53662;50.114;8.626;2023-07-09T09:59:20;5.43;;;4.50;;
49738;SDS011;53662;50.114;8.626;2023-07-09T10:01:46;9.48;;;5.97;;
49738;SDS011;53662;50.114;8.626;2023-07-09T10:04:16;9.68;;;5.50;;
49738;SDS011;53662;50.114;8.626;2023-07-09T10:06:43;6.15;;;5.22;;
49738;SDS011;53662;50.114;8.626;2023-07-09T10:11:48;4.72;;;4.32;;
49738;SDS011;53662;50.114;8.626;2023-07-09T10:17:11;10.95;;;4.60;;
49738;SDS011;53662;50.114;8.626;2023-07-09T10:22:07;6.57;;;4.80;;
49738;SDS011;53662;50.114;8.626;2023-07-09T10:24:49;8.80;;;4.70;;
49738;SDS011;53662;50.114;8.626;2023-07-09T10:27:21;5.70;;;4.40;;
49738;SDS011;53662;50.114;8.626;2023-07-09T10:32:23;7.53;;;4.80;;
49738;SDS011;53662;50.114;8.626;2023-07-09T10:35:01;10.55;;;4.55;;
49738;SDS011;53662;50.114;8.626;2023-07-09T10:40:16;9.73;;;4.70;;
49738;SDS011;53662;50.114;8.626;2023-07-09T10:45:10;8.32;;;4.78;;
49738;SDS011;53662;50.114;8.626;2023-07-09T10:47:38;10.30;;;4.38;;
49738;SDS011;53662;50.114;8.626;2023-07-09T10:50:06;4.40;;;3.67;;
49738;SDS011;53662;50.114;8.626;2023-07-09T10:52:39;7.13;;;4.30;;
49738;SDS011;53662;50.114;8.626;2023-07-09T10:55:15;6.45;;;3.75;;
49738;SDS011;53662;50.114;8.626;2023-07-09T10:57:53;6.47;;;3.40;;
49738;SDS011;53662;50.114;8.626;2023-07-09T11:00:21;6.97;;;4.32;;
49738;SDS011;53662;50.114;8.626;2023-07-09T11:02:48;6.18;;;4.05;;
49738;SDS011;53662;50.114;8.626;2023-07-09T11:05:16;7.65;;;4.55;;
49738;SDS011;53662;50.114;8.626;2023-07-09T11:07:44;7.05;;;4.68;;
49738;SDS011;53662;50.114;8.626;2023-07-09T11:12:51;4.15;;;3.83;;
49738;SDS011;53662;50.114;8.626;2023-07-09T11:15:22;5.22;;;4.22;;
49738;SDS011;53662;50.114;8.626;2023-07-09T11:17:49;5.10;;;4.50;;
49738;SDS011;53662;50.114;8.626;2023-07-09T11:20:20;7.85;;;4.55;;
49738;SDS011;53662;50.114;8.626;2023-07-09T11:23:36;5.15;;;4.13;;
49738;SDS011;53662;50.114;8.626;2023-07-09T11:25:49;9.38;;;4.28;;
49738;SDS011;53662;50.114;8.626;2023-07-09T11:28:33;4.47;;;4.13;;
49738;SDS011;53662;50.114;8.626;2023-07-09T11:31:04;4.32;;;3.92;;
49738;SDS011;53662;50.114;8.626;2023-07-09T11:33:30;6.75;;;3.80;;
49738;SDS011;53662;50.114;8.626;2023-07-09T11:36:11;5.30;;;4.45;;
49738;SDS011;53662;50.114;8.626;2023-07-09T11:38:39;9.77;;;4.93;;
49738;SDS011;53662;50.114;8.626;2023-07-09T11:41:22;4.25;;;4.03;;
49738;SDS011;53662;50.114;8.626;2023-07-09T11:43:49;5.60;;;4.32;;
49738;SDS011;53662;50.114;8.626;2023-07-09T11:46:17;4.53;;;3.60;;
49738;SDS011;53662;50.114;8.626;2023-07-09T11:48:43;4.47;;;3.92;;
49738;SDS011;53662;50.114;8.626;2023-07-09T11:51:17;4.68;;;4.32;;
49738;SDS011;53662;50.114;8.626;2023-07-09T11:53:47;4.38;;;4.07;;
49738;SDS011;53662;50.114;8.626;2023-07-09T11:56:17;5.40;;;3.60;;
49738;SDS011;53662;50.114;8.626;2023-07-09T11:58:50;5.65;;;4.20;;
49738;SDS011;53662;50.114;8.626;2023-07-09T12:01:18;7.82;;;5.00;;
49738;SDS011;53662;50.114;8.626;2023-07-09T12:03:45;4.75;;;3.75;;
49738;SDS011;53662;50.114;8.626;2023-07-09T12:06:19;7.40;;;3.75;;
49738;SDS011;53662;50.114;8.626;2023-07-09T12:08:46;3.83;;;3.33;;
49738;SDS011;53662;50.114;8.626;2023-07-09T12:11:25;5.82;;;3.88;;
49738;SDS011;53662;50.114;8.626;2023-07-09T12:13:52;5.50;;;4.57;;
49738;SDS011;53662;50.114;8.626;2023-07-09T12:16:23;5.32;;;4.00;;
49738;SDS011;53662;50.114;8.626;2023-07-09T12:18:49;5.28;;;3.80;;
49738;SDS011;53662;50.114;8.626;2023-07-09T12:21:15;6.32;;;4.05;;
49738;SDS011;53662;50.114;8.626;2023-07-09T12:23:41;6.18;;;3.88;;
49738;SDS011;53662;50.114;8.626;2023-07-09T12:26:14;7.35;;;3.78;;
49738;SDS011;53662;50.114;8.626;2023-07-09T12:28:53;4.93;;;4.00;;
49738;SDS011;53662;50.114;8.626;2023-07-09T12:31:27;5.82;;;4.00;;
49738;SDS011;53662;50.114;8.626;2023-07-09T12:33:54;6.97;;;3.67;;
49738;SDS011;53662;50.114;8.626;2023-07-09T12:36:20;6.53;;;4.35;;
49738;SDS011;53662;50.114;8.626;2023-07-09T12:38:48;6.05;;;4.25;;
49738;SDS011;53662;50.114;8.626;2023-07-09T12:41:28;4.57;;;4.03;;
49738;SDS011;53662;50.114;8.626;2023-07-09T12:46:21;6.32;;;4.63;;
49738;SDS011;53662;50.114;8.626;2023-07-09T12:48:48;5.97;;;4.53;;
49738;SDS011;53662;50.114;8.626;2023-07-09T12:51:17;6.30;;;4.35;;
49738;SDS011;53662;50.114;8.626;2023-07-09T12:53:44;8.50;;;4.05;;
49738;SDS011;53662;50.114;8.626;2023-07-09T12:56:11;4.68;;;4.28;;
49738;SDS011;53662;50.114;8.626;2023-07-09T12:58:38;5.05;;;4.65;;
49738;SDS011;53662;50.114;8.626;2023-07-09T13:01:05;5.20;;;4.47;;
49738;SDS011;53662;50.114;8.626;2023-07-09T13:03:32;7.75;;;4.80;;
49738;SDS011;53662;50.114;8.626;2023-07-09T13:08:25;12.70;;;4.72;;
49738;SDS011;53662;50.114;8.626;2023-07-09T13:10:52;9.52;;;4.63;;
49738;SDS011;53662;50.114;8.626;2023-07-09T13:13:20;6.22;;;4.97;;
49738;SDS011;53662;50.114;8.626;2023-07-09T13:15:56;7.85;;;4.90;;
49738;SDS011;53662;50.114;8.626;2023-07-09T13:18:24;10.70;;;5.72;;
49738;SDS011;53662;50.114;8.626;2023-07-09T13:20:51;5.78;;;5.28;;
49738;SDS011;53662;50.114;8.626;2023-07-09T13:23:24;9.48;;;4.80;;
49738;SDS011;53662;50.114;8.626;2023-07-09T13:25:51;9.32;;;5.00;;
49738;SDS011;53662;50.114;8.626;2023-07-09T13:28:18;7.63;;;5.07;;
49738;SDS011;53662;50.114;8.626;2023-07-09T13:30:46;6.18;;;4.50;;
49738;SDS011;53662;50.114;8.626;2023-07-09T13:33:12;7.35;;;4.72;;
49738;SDS011;53662;50.114;8.626;2023-07-09T13:35:38;6.70;;;4.30;;
49738;SDS011;53662;50.114;8.626;2023-07-09T13:38:12;7.03;;;4.82;;
49738;SDS011;53662;50.114;8.626;2023-07-09T13:40:38;6.13;;;4.95;;
49738;SDS011;53662;50.114;8.626;2023-07-09T13:43:10;7.00;;;4.57;;
49738;SDS011;53662;50.114;8.626;2023-07-09T13:45:36;8.63;;;4.53;;
49738;SDS011;53662;50.114;8.626;2023-07-09T13:48:02;8.50;;;4.75;;
49738;SDS011;53662;50.114;8.626;2023-07-09T13:50:28;7.68;;;4.78;;
49738;SDS011;53662;50.114;8.626;2023-07-09T13:52:54;9.90;;;4.28;;
49738;SDS011;53662;50.114;8.626;2023-07-09T13:55:21;6.68;;;5.03;;
49738;SDS011;53662;50.114;8.626;2023-07-09T13:57:48;7.82;;;4.90;;
49738;SDS011;53662;50.114;8.626;2023-07-09T14:00:14;4.63;;;4.13;;
49738;SDS011;53662;50.114;8.626;2023-07-09T14:02:40;6.63;;;4.72;;
49738;SDS011;53662;50.114;8.626;2023-07-09T14:05:09;6.82;;;4.50;;
49738;SDS011;53662;50.114;8.626;2023-07-09T14:07:35;5.07;;;4.45;;
49738;SDS011;53662;50.114;8.626;2023-07-09T14:10:03;5.78;;;4.13;;
49738;SDS011;53662;50.114;8.626;2023-07-09T14:12:29;5.13;;;4.45;;
49738;SDS011;53662;50.114;8.626;2023-07-09T14:14:57;7.53;;;4.30;;
49738;SDS011;53662;50.114;8.626;2023-07-09T14:17:23;6.68;;;4.47;;
49738;SDS011;53662;50.114;8.626;2023-07-09T14:19:50;4.80;;;4.38;;
49738;SDS011;53662;50.114;8.626;2023-07-09T14:22:28;6.28;;;4.47;;
49738;SDS011;53662;50.114;8.626;2023-07-09T14:24:56;5.72;;;4.88;;
49738;SDS011;53662;50.114;8.626;2023-07-09T14:27:22;5.78;;;4.53;;
49738;SDS011;53662;50.114;8.626;2023-07-09T14:29:48;6.00;;;4.43;;
49738;SDS011;53662;50.114;8.626;2023-07-09T14:32:36;5.25;;;4.82;;
49738;SDS011;53662;50.114;8.626;2023-07-09T14:35:01;8.68;;;4.60;;
49738;SDS011;53662;50.114;8.626;2023-07-09T14:37:28;5.05;;;4.63;;
49738;SDS011;53662;50.114;8.626;2023-07-09T14:39:54;9.63;;;4.38;;
49738;SDS011;53662;50.114;8.626;2023-07-09T14:42:20;4.95;;;4.30;;
49738;SDS011;53662;50.114;8.626;2023-07-09T14:44:47;10.15;;;5.07;;
49738;SDS011;53662;50.114;8.626;2023-07-09T14:47:20;11.23;;;4.65;;
49738;SDS011;53662;50.114;8.626;2023-07-09T14:49:46;5.53;;;4.53;;
49738;SDS011;53662;50.114;8.626;2023-07-09T14:52:14;5.97;;;4.30;;
49738;SDS011;53662;50.114;8.626;2023-07-09T14:54:42;5.00;;;4.13;;
49738;SDS011;53662;50.114;8.626;2023-07-09T14:57:19;16.60;;;5.00;;
49738;SDS011;53662;50.114;8.626;2023-07-09T14:59:46;8.95;;;4.40;;
49738;SDS011;53662;50.114;8.626;2023-07-09T15:02:46;5.00;;;4.50;;
49738;SDS011;53662;50.114;8.626;2023-07-09T15:05:05;5.10;;;4.70;;
49738;SDS011;53662;50.114;8.626;2023-07-09T15:07:34;5.07;;;4.18;;
49738;SDS011;53662;50.114;8.626;2023-07-09T15:10:00;7.00;;;4.65;;
49738;SDS011;53662;50.114;8.626;2023-07-09T15:12:30;5.60;;;4.13;;
49738;SDS011;53662;50.114;8.626;2023-07-09T15:15:00;6.60;;;4.53;;
49738;SDS011;53662;50.114;8.626;2023-07-09T15:17:28;5.70;;;4.57;;
49738;SDS011;53662;50.114;8.626;2023-07-09T15:19:54;4.65;;;4.25;;
49738;SDS011;53662;50.114;8.626;2023-07-09T15:22:26;5.93;;;4.30;;
49738;SDS011;53662;50.114;8.626;2023-07-09T15:24:53;8.45;;;4.65;;
49738;SDS011;53662;50.114;8.626;2023-07-09T15:27:19;5.00;;;4.45;;
49738;SDS011;53662;50.114;8.626;2023-07-09T15:29:45;5.28;;;4.45;;